Time;durP1;ratioP1;P1;durP2;ratioP2;P2;SDS_P1;SDS_P2;PMS_P1;PMS_P2;Temp;Humidity;BMP_temperature;BMP_pressure;BME280_temperature;BME280_humidity;BME280_pressure;Samples;Min_cycle;Max_cycle;Signal;HPM_P1;HPM_P2
2022/08/14 00:00:38;;;;;;;6.24;5.56;;;20.50;99.90;;;;;;4375123;28;10000395;-75
2022/08/14 00:03:04;;;;;;;6.50;5.85;;;20.50;99.90;;;;;;5076717;28;20276;-75
2022/08/14 00:05:30;;;;;;;6.38;5.78;;;20.40;99.90;;;;;;5080495;28;20025;-75
2022/08/14 00:07:55;;;;;;;6.40;5.90;;;20.40;99.90;;;;;;5085061;28;20165;-75
2022/08/14 00:10:22;;;;;;;6.55;5.95;;;20.40;99.90;;;;;;5078623;28;20027;-75
2022/08/14 00:12:54;;;;;;;6.30;5.80;;;20.40;99.90;;;;;;5083151;28;20020;-75
2022/08/14 00:15:27;;;;;;;6.80;6.10;;;20.40;99.90;;;;;;5073811;28;20115;-75
2022/08/14 00:17:53;;;;;;;;;;;20.30;99.90;;;;;;5081297;28;20029;-75
2022/08/14 00:20:24;;;;;;;6.72;6.13;;;20.30;99.90;;;;;;5083350;28;19904;-75
2022/08/14 00:22:50;;;;;;;7.00;6.30;;;20.30;99.90;;;;;;5076803;28;20066;-75
2022/08/14 00:25:15;;;;;;;9.02;6.95;;;20.30;99.90;;;;;;5080948;28;20075;-75
2022/08/14 00:27:41;;;;;;;6.70;6.10;;;20.20;99.90;;;;;;5081858;28;20024;-75
2022/08/14 00:30:09;;;;;;;6.95;6.35;;;20.20;99.90;;;;;;5080018;28;20509;-75
2022/08/14 00:32:35;;;;;;;6.97;6.30;;;20.20;99.90;;;;;;5084740;28;20085;-75
2022/08/14 00:35:01;;;;;;;6.75;5.85;;;20.10;99.90;;;;;;5083073;28;20024;-75
2022/08/14 00:37:28;;;;;;;6.63;6.10;;;20.10;99.90;;;;;;5079765;28;20031;-75
2022/08/14 00:39:53;;;;;;;6.75;6.05;;;20.10;99.90;;;;;;5083110;28;20044;-75
2022/08/14 00:42:20;;;;;;;6.60;6.00;;;20.10;99.90;;;;;;5079940;28;20077;-75
2022/08/14 00:44:46;;;;;;;6.72;5.70;;;20.10;99.90;;;;;;5082455;28;20032;-75
2022/08/14 00:47:13;;;;;;;6.57;5.97;;;20.10;99.90;;;;;;5078663;28;20545;-75
2022/08/14 00:49:39;;;;;;;6.85;6.25;;;20.10;99.90;;;;;;5082932;28;20041;-75
2022/08/14 00:52:05;;;;;;;6.40;5.78;;;20.10;99.90;;;;;;5079121;28;20085;-75
2022/08/14 00:54:31;;;;;;;8.20;6.38;;;20.20;99.90;;;;;;5083097;28;20028;-75
2022/08/14 00:56:57;;;;;;;7.45;6.63;;;20.20;99.90;;;;;;5080710;28;20438;-75
2022/08/14 00:59:27;;;;;;;7.53;6.60;;;20.20;99.90;;;;;;5078656;28;20020;-75
2022/08/14 01:01:58;;;;;;;7.78;6.70;;;20.30;99.90;;;;;;5074277;28;20028;-75
2022/08/14 01:04:25;;;;;;;8.15;7.32;;;20.30;99.90;;;;;;5081110;28;20020;-75
2022/08/14 01:06:52;;;;;;;8.98;7.28;;;20.30;99.90;;;;;;5081056;28;20135;-75
2022/08/14 01:09:21;;;;;;;7.78;6.82;;;20.30;99.90;;;;;;5082841;28;20358;-75
2022/08/14 01:11:51;;;;;;;8.45;6.80;;;20.30;99.90;;;;;;5079233;28;20028;-75
2022/08/14 01:14:18;;;;;;;8.00;6.70;;;20.30;99.90;;;;;;5083471;28;20036;-75
2022/08/14 01:16:45;;;;;;;8.20;7.18;;;20.40;99.90;;;;;;5084164;28;20032;-75
2022/08/14 01:21:55;;;;;;;9.43;6.93;;;20.30;99.90;;;;;;5074994;28;20070;-75
2022/08/14 01:24:21;;;;;;;8.85;7.68;;;20.30;99.90;;;;;;5080067;28;20328;-75
2022/08/14 01:26:47;;;;;;;7.38;6.63;;;20.30;99.90;;;;;;5079056;28;20089;-75
2022/08/14 01:29:13;;;;;;;8.63;7.35;;;20.30;99.90;;;;;;5080353;28;20028;-75
2022/08/14 01:31:50;;;;;;;7.72;6.93;;;20.30;99.90;;;;;;5085013;28;20124;-75
2022/08/14 01:34:18;;;;;;;7.53;6.82;;;20.30;99.90;;;;;;5081051;28;20521;-75
2022/08/14 01:36:44;;;;;;;7.82;7.13;;;20.30;99.90;;;;;;5082411;28;20024;-74
2022/08/14 01:39:16;;;;;;;9.75;7.45;;;20.30;99.90;;;;;;5076849;28;20094;-75
2022/08/14 01:41:45;;;;;;;9.13;7.13;;;20.30;99.90;;;;;;5077202;28;20022;-74
2022/08/14 01:44:14;;;;;;;9.52;7.72;;;20.30;99.90;;;;;;5083268;28;20020;-75
2022/08/14 01:46:43;;;;;;;8.90;7.90;;;20.30;99.90;;;;;;5076372;28;20036;-75
2022/08/14 01:49:10;;;;;;;10.98;7.50;;;20.30;99.90;;;;;;5079778;28;20016;-75
2022/08/14 01:51:38;;;;;;;9.00;7.18;;;20.30;99.90;;;;;;5078445;28;20052;-75
2022/08/14 01:54:20;;;;;;;9.98;8.07;;;20.30;99.90;;;;;;5077884;28;20131;-74
2022/08/14 01:56:49;;;;;;;10.10;8.10;;;20.30;99.90;;;;;;5076168;28;20491;-74
2022/08/14 01:59:23;;;;;;;11.00;7.65;;;20.20;99.90;;;;;;5078098;28;20292;-75
2022/08/14 02:01:51;;;;;;;9.18;7.53;;;20.20;99.90;;;;;;5073012;28;20028;-75
2022/08/14 02:04:21;;;;;;;10.80;7.90;;;20.20;99.90;;;;;;5076779;28;20103;-74
2022/08/14 02:06:49;;;;;;;10.90;8.05;;;20.10;99.90;;;;;;5083479;28;20394;-74
2022/08/14 02:09:16;;;;;;;8.70;7.90;;;20.10;99.90;;;;;;5082356;28;20391;-74
2022/08/14 02:11:42;;;;;;;9.15;7.70;;;20.10;99.90;;;;;;5079828;28;20024;-75
2022/08/14 02:14:10;;;;;;;9.88;8.68;;;20.10;99.90;;;;;;5082355;28;20115;-75
2022/08/14 02:16:40;;;;;;;8.70;7.80;;;20.00;99.90;;;;;;5084414;28;20032;-75
2022/08/14 02:19:14;;;;;;;12.93;8.85;;;20.00;99.90;;;;;;5086019;28;20035;-75
2022/08/14 02:21:42;;;;;;;9.43;8.50;;;20.00;99.90;;;;;;5083486;28;20507;-75
2022/08/14 02:24:08;;;;;;;13.48;8.40;;;19.90;99.90;;;;;;5086442;28;20088;-75
2022/08/14 02:26:36;;;;;;;10.20;8.07;;;19.90;99.90;;;;;;5084065;28;20716;-75
2022/08/14 02:29:09;;;;;;;9.13;8.23;;;19.90;99.90;;;;;;5087101;28;20119;-75
2022/08/14 02:31:39;;;;;;;9.82;8.85;;;19.90;99.90;;;;;;5086296;28;20024;-74
2022/08/14 02:34:17;;;;;;;10.07;8.73;;;19.90;99.90;;;;;;5083555;28;20036;-75
2022/08/14 02:36:44;;;;;;;9.57;8.57;;;19.80;99.90;;;;;;5083717;28;20368;-75
2022/08/14 02:39:10;;;;;;;10.27;8.38;;;19.80;99.90;;;;;;5084950;28;20055;-75
2022/08/14 02:41:37;;;;;;;10.05;9.02;;;19.80;99.90;;;;;;5085798;28;20028;-75
2022/08/14 02:44:05;;;;;;;11.02;8.80;;;19.80;99.90;;;;;;5082587;28;20071;-75
2022/08/14 02:46:31;;;;;;;11.23;8.85;;;19.80;99.90;;;;;;5084718;28;20316;-75
2022/08/14 02:48:57;;;;;;;11.63;8.70;;;19.70;99.90;;;;;;5081697;28;21134;-75
2022/08/14 02:51:23;;;;;;;13.45;8.70;;;19.70;99.90;;;;;;5081664;28;20020;-75
2022/08/14 02:53:50;;;;;;;10.13;9.07;;;19.70;99.90;;;;;;5083580;28;20028;-74
2022/08/14 02:56:18;;;;;;;14.00;9.05;;;19.70;99.90;;;;;;5086738;28;20403;-74
2022/08/14 02:58:48;;;;;;;12.70;9.75;;;19.70;99.90;;;;;;5086879;28;20036;-74
2022/08/14 03:01:16;;;;;;;13.90;10.25;;;19.60;99.90;;;;;;5083062;28;20038;-75
2022/08/14 03:03:43;;;;;;;11.60;10.32;;;19.60;99.90;;;;;;5081929;28;20024;-74
2022/08/14 03:06:09;;;;;;;11.60;9.75;;;19.60;99.90;;;;;;5079715;28;20028;-75
2022/08/14 03:08:37;;;;;;;11.57;9.48;;;19.50;99.90;;;;;;5081931;28;20044;-74
2022/08/14 03:11:06;;;;;;;14.43;10.27;;;19.50;99.90;;;;;;5077126;28;20151;-74
2022/08/14 03:13:36;;;;;;;10.88;9.30;;;19.50;99.90;;;;;;5085561;28;20550;-74
2022/08/14 03:16:06;;;;;;;11.90;9.85;;;19.50;99.90;;;;;;5077956;28;20031;-74
2022/08/14 03:18:31;;;;;;;10.85;9.63;;;19.40;99.90;;;;;;5079595;28;20047;-75
2022/08/14 03:21:01;;;;;;;11.77;9.85;;;19.40;99.90;;;;;;5074480;28;20056;-75
2022/08/14 03:23:27;;;;;;;11.88;10.48;;;19.40;99.90;;;;;;5084224;28;20085;-74
2022/08/14 03:25:52;;;;;;;14.15;10.85;;;19.30;99.90;;;;;;5083145;28;20488;-74
2022/08/14 03:28:18;;;;;;;13.73;10.68;;;19.30;99.90;;;;;;5082307;28;20461;-75
2022/08/14 03:30:44;;;;;;;10.93;9.93;;;19.20;99.90;;;;;;5082434;28;20024;-74
2022/08/14 03:33:11;;;;;;;12.68;10.75;;;19.20;99.90;;;;;;5080824;28;20044;-74
2022/08/14 03:35:38;;;;;;;11.15;10.05;;;19.20;99.90;;;;;;5084428;28;20051;-75
2022/08/14 03:38:10;;;;;;;11.65;10.40;;;19.20;99.90;;;;;;5083464;28;20019;-75
2022/08/14 03:40:38;;;;;;;11.48;10.32;;;19.20;99.90;;;;;;5081629;28;21617;-75
2022/08/14 03:43:06;;;;;;;12.10;11.00;;;19.10;99.90;;;;;;5085206;28;20388;-75
2022/08/14 03:45:34;;;;;;;15.90;12.25;;;19.10;99.90;;;;;;5080134;28;20108;-75
2022/08/14 03:48:08;;;;;;;14.90;12.02;;;19.00;99.90;;;;;;5080428;28;20051;-75
2022/08/14 03:50:34;;;;;;;17.98;12.55;;;19.00;99.90;;;;;;5080428;28;20048;-75
2022/08/14 03:53:01;;;;;;;11.98;10.85;;;18.90;99.90;;;;;;5084763;28;20059;-75
2022/08/14 03:55:27;;;;;;;15.45;12.10;;;18.90;99.90;;;;;;5080824;28;20162;-75
2022/08/14 03:57:54;;;;;;;14.23;11.82;;;18.80;99.90;;;;;;5082878;28;20054;-74
2022/08/14 04:00:20;;;;;;;16.10;11.68;;;18.80;99.90;;;;;;5079044;28;20056;-75
2022/08/14 04:02:46;;;;;;;13.63;11.40;;;18.70;99.90;;;;;;5074624;28;20650;-75
2022/08/14 04:05:12;;;;;;;13.18;11.77;;;18.70;99.90;;;;;;5084141;28;20028;-75
2022/08/14 04:07:38;;;;;;;13.15;11.75;;;18.60;99.90;;;;;;5084469;28;20111;-74
2022/08/14 04:10:05;;;;;;;14.15;11.52;;;18.60;99.90;;;;;;5080472;28;20022;-75
2022/08/14 04:12:32;;;;;;;13.25;11.80;;;18.70;99.90;;;;;;5075412;28;20412;-75
2022/08/14 04:14:58;;;;;;;12.75;11.52;;;18.60;99.90;;;;;;5076703;28;20620;-74
2022/08/14 04:17:25;;;;;;;13.40;12.10;;;18.70;99.90;;;;;;5084091;28;20039;-75
2022/08/14 04:19:50;;;;;;;13.25;11.80;;;18.60;99.90;;;;;;5083810;28;20027;-75
2022/08/14 04:22:20;;;;;;;15.93;11.60;;;;;;;;;;5080909;28;20038;-74
2022/08/14 04:24:47;;;;;;;13.82;11.82;;;18.60;99.90;;;;;;5080240;28;20115;-74
2022/08/14 04:27:13;;;;;;;13.88;11.25;;;18.60;99.90;;;;;;5082177;28;20035;-74
2022/08/14 04:29:40;;;;;;;12.88;11.52;;;18.60;99.90;;;;;;5080900;28;20025;-74
2022/08/14 04:32:08;;;;;;;13.60;11.43;;;18.60;99.90;;;;;;5081449;28;20170;-74
2022/08/14 04:34:38;;;;;;;12.60;11.23;;;18.60;99.90;;;;;;5083098;28;20116;-74
2022/08/14 04:45:20;;;;;;;13.40;11.65;;;18.60;99.90;;;;;;5079021;28;20441;-74
2022/08/14 04:50:30;;;;;;;14.27;11.65;;;18.60;99.90;;;;;;5078654;28;20116;-74
2022/08/14 04:52:55;;;;;;;14.70;11.45;;;18.50;99.90;;;;;;5079128;28;20051;-75
2022/08/14 04:55:22;;;;;;;11.98;10.75;;;18.60;99.90;;;;;;5079599;28;20024;-75
2022/08/14 04:57:48;;;;;;;14.48;11.60;;;18.50;99.90;;;;;;5082813;28;20062;-74
2022/08/14 05:00:13;;;;;;;12.15;10.85;;;18.50;99.90;;;;;;5079800;28;20043;-74
2022/08/14 05:02:39;;;;;;;12.63;10.30;;;18.50;99.90;;;;;;5077114;28;20066;-74
2022/08/14 05:05:05;;;;;;;11.45;10.25;;;18.50;99.90;;;;;;5079432;28;20024;-74
2022/08/14 05:07:30;;;;;;;11.77;10.60;;;18.60;99.90;;;;;;5077468;28;20111;-74
2022/08/14 05:09:56;;;;;;;11.52;10.32;;;18.60;99.90;;;;;;5080190;28;20028;-75
2022/08/14 05:12:21;;;;;;;11.68;10.48;;;18.60;99.90;;;;;;5077892;28;20031;-74
2022/08/14 05:14:47;;;;;;;12.25;10.93;;;18.60;99.90;;;;;;5080064;28;20098;-74
2022/08/14 05:17:13;;;;;;;12.95;10.60;;;18.70;99.90;;;;;;5081270;28;20040;-74
2022/08/14 05:19:38;;;;;;;12.32;9.90;;;18.70;99.90;;;;;;5079807;28;20027;-74
2022/08/14 05:22:04;;;;;;;10.95;9.65;;;18.80;99.90;;;;;;5077498;28;20836;-74
2022/08/14 05:24:30;;;;;;;10.15;9.07;;;18.80;99.90;;;;;;5077991;28;20012;-74
2022/08/14 05:26:55;;;;;;;10.60;9.50;;;18.90;99.90;;;;;;5082471;28;20149;-74
2022/08/14 05:29:21;;;;;;;11.65;9.77;;;18.90;99.90;;;;;;5075738;28;20044;-74
2022/08/14 05:31:47;;;;;;;14.40;10.35;;;19.00;99.90;;;;;;5073512;28;20388;-74
2022/08/14 05:34:12;;;;;;;11.18;10.07;;;19.00;99.90;;;;;;5079936;28;20047;-74
2022/08/14 05:36:38;;;;;;;10.85;9.40;;;19.00;99.90;;;;;;5080194;28;20024;-74
2022/08/14 05:39:05;;;;;;;10.55;9.43;;;19.10;99.90;;;;;;5082082;28;20044;-74
2022/08/14 05:41:31;;;;;;;14.02;9.90;;;19.10;99.90;;;;;;5081411;28;20479;-74
2022/08/14 05:43:57;;;;;;;11.52;9.88;;;19.10;99.90;;;;;;5082633;28;20187;-74
2022/08/14 05:46:23;;;;;;;13.57;10.43;;;19.10;99.90;;;;;;5086115;28;20670;-74
2022/08/14 05:48:55;;;;;;;13.02;9.60;;;19.20;99.90;;;;;;5078219;28;20028;-74
2022/08/14 05:51:22;;;;;;;10.23;8.85;;;19.20;99.90;;;;;;5082458;28;20107;-74
2022/08/14 05:53:48;;;;;;;8.93;8.05;;;19.20;99.90;;;;;;5079321;28;20024;-74
2022/08/14 05:56:14;;;;;;;9.40;8.23;;;19.20;99.90;;;;;;5076151;28;20035;-74
2022/08/14 05:58:40;;;;;;;10.68;8.40;;;19.20;99.90;;;;;;5079832;28;20032;-73
2022/08/14 06:01:08;;;;;;;10.13;9.07;;;19.30;99.90;;;;;;5078274;28;20500;-72
2022/08/14 06:03:34;;;;;;;9.80;8.90;;;19.30;99.90;;;;;;5078425;28;20038;-73
2022/08/14 06:06:00;;;;;;;10.98;9.57;;;19.40;99.90;;;;;;5086214;28;20195;-73
2022/08/14 06:08:30;;;;;;;10.50;8.10;;;19.40;99.90;;;;;;5079928;28;20058;-72
2022/08/14 06:11:02;;;;;;;9.05;8.25;;;19.50;99.90;;;;;;5080371;28;20028;-72
2022/08/14 06:13:32;;;;;;;9.50;8.60;;;19.50;99.90;;;;;;5077466;28;20020;-73
2022/08/14 06:15:58;;;;;;;9.40;8.50;;;19.50;99.90;;;;;;5075418;28;20483;-72
2022/08/14 06:18:24;;;;;;;9.63;8.75;;;19.60;99.90;;;;;;5079507;28;20050;-72
2022/08/14 06:20:49;;;;;;;10.57;8.60;;;19.60;99.90;;;;;;5080258;28;20032;-72
2022/08/14 06:23:15;;;;;;;9.45;8.38;;;19.70;99.90;;;;;;5083953;28;20085;-72
2022/08/14 06:25:43;;;;;;;11.60;8.60;;;19.70;99.90;;;;;;5079018;28;20028;-72
2022/08/14 06:28:16;;;;;;;9.82;8.80;;;19.80;99.90;;;;;;5084517;28;20522;-72
2022/08/14 06:30:41;;;;;;;12.48;8.38;;;19.90;99.90;;;;;;5080247;28;20469;-72
2022/08/14 06:33:07;;;;;;;9.32;8.43;;;19.90;99.90;;;;;;5084314;28;20085;-73
2022/08/14 06:36:25;;;;;;;10.30;9.30;;;19.90;99.90;;;;;;5085874;28;20028;-76
2022/08/14 06:38:52;;;;;;;9.77;8.77;;;20.00;99.90;;;;;;5068501;28;20076;-76
2022/08/14 06:41:18;;;;;;;9.88;8.88;;;20.20;99.90;;;;;;5077624;28;20031;-76
2022/08/14 06:43:44;;;;;;;10.70;9.70;;;20.20;99.90;;;;;;5081670;28;20043;-76
2022/08/14 06:46:10;;;;;;;10.88;9.40;;;20.20;99.90;;;;;;5083203;28;20491;-76
2022/08/14 06:48:36;;;;;;;10.57;9.07;;;20.30;99.90;;;;;;5076653;28;20050;-76
2022/08/14 06:51:02;;;;;;;10.95;9.60;;;20.50;99.90;;;;;;5081585;28;20093;-76
2022/08/14 06:53:27;;;;;;;11.98;9.15;;;20.60;99.90;;;;;;5088832;28;20032;-77
2022/08/14 06:55:53;;;;;;;11.10;9.40;;;20.90;99.90;;;;;;5088154;28;20032;-76
2022/08/14 06:58:20;;;;;;;10.48;9.38;;;21.10;99.90;;;;;;5089846;28;20036;-76
2022/08/14 07:06:16;;;;;;;10.00;9.02;;;22.00;99.90;;;;;;5087588;28;20119;-76
2022/08/14 07:08:42;;;;;;;10.02;9.00;;;22.30;99.90;;;;;;5087598;28;20256;-76
2022/08/14 07:11:08;;;;;;;9.25;8.35;;;22.60;99.90;;;;;;5086551;28;20103;-76
2022/08/14 07:13:34;;;;;;;11.75;8.55;;;22.80;99.90;;;;;;5070174;28;20039;-76
2022/08/14 07:16:00;;;;;;;10.68;8.43;;;23.00;99.90;;;;;;5069226;28;20223;-76
2022/08/14 07:18:30;;;;;;;11.25;8.27;;;23.20;99.90;;;;;;5073957;28;20025;-76
2022/08/14 07:20:57;;;;;;;10.98;8.50;;;23.50;99.90;;;;;;5078279;28;20060;-76
2022/08/14 07:23:24;;;;;;;10.13;8.50;;;23.60;99.90;;;;;;5083118;28;20060;-76
2022/08/14 07:25:53;;;;;;;11.45;8.55;;;23.80;99.90;;;;;;5080848;28;20510;-76
2022/08/14 07:28:27;;;;;;;10.13;7.80;;;23.80;99.90;;;;;;5087820;28;20309;-76
2022/08/14 07:30:56;;;;;;;8.85;7.90;;;24.00;99.90;;;;;;5085631;28;20024;-76
2022/08/14 07:33:23;;;;;;;8.82;7.82;;;24.10;99.90;;;;;;5084754;28;20035;-76
2022/08/14 07:35:49;;;;;;;9.52;8.02;;;24.20;99.90;;;;;;5078183;28;20020;-76
2022/08/14 07:38:22;;;;;;;8.50;7.70;;;24.40;99.90;;;;;;5087010;28;20046;-76
2022/08/14 07:40:49;;;;;;;;;;;24.50;99.90;;;;;;5087209;28;20035;-76
2022/08/14 07:43:15;;;;;;;8.77;7.90;;;24.70;99.90;;;;;;5083707;28;20263;-76
2022/08/14 07:45:41;;;;;;;10.27;7.75;;;24.80;99.90;;;;;;5076518;28;20718;-76
2022/08/14 07:48:08;;;;;;;8.43;7.47;;;24.90;99.90;;;;;;5069150;28;20437;-76
2022/08/14 07:50:34;;;;;;;10.48;7.80;;;25.00;99.90;;;;;;5077168;28;20024;-76
2022/08/14 07:53:00;;;;;;;14.50;7.47;;;25.10;99.90;;;;;;5083611;28;20153;-76
2022/08/14 07:55:27;;;;;;;10.95;7.43;;;25.20;99.90;;;;;;5086704;28;20028;-76
2022/08/14 07:57:53;;;;;;;7.18;6.47;;;25.20;99.90;;;;;;5081432;28;20120;-76
2022/08/14 08:00:21;;;;;;;8.52;7.53;;;25.30;99.90;;;;;;5068099;28;20025;-76
2022/08/14 08:02:51;;;;;;;9.00;7.60;;;25.50;99.90;;;;;;5084340;28;20567;-76
2022/08/14 08:05:17;;;;;;;7.97;6.88;;;25.70;99.90;;;;;;5087221;28;20028;-76
2022/08/14 08:07:45;;;;;;;8.07;7.28;;;25.90;99.90;;;;;;5088368;28;20077;-76
2022/08/14 08:10:31;;;;;;;7.93;7.13;;;26.10;99.90;;;;;;5069280;28;20028;-77
2022/08/14 08:13:06;;;;;;;8.40;7.60;;;26.20;99.90;;;;;;5084904;28;20031;-77
2022/08/14 08:15:35;;;;;;;9.82;7.82;;;26.30;99.90;;;;;;5081132;28;20020;-76
2022/08/14 08:18:04;;;;;;;8.68;7.88;;;26.40;99.30;;;;;;5088152;28;20148;-76
2022/08/14 08:20:35;;;;;;;8.48;7.68;;;26.40;98.40;;;;;;5088134;28;20036;-76
2022/08/14 08:23:01;;;;;;;8.57;7.68;;;26.30;98.40;;;;;;5070564;28;20577;-76
2022/08/14 08:25:29;;;;;;;7.32;6.72;;;26.20;98.00;;;;;;5073559;28;20036;-76
2022/08/14 08:28:01;;;;;;;8.35;7.65;;;26.10;98.30;;;;;;5082493;28;20396;-76
2022/08/14 08:30:29;;;;;;;7.72;7.03;;;26.20;98.70;;;;;;5085077;28;20023;-76
2022/08/14 08:32:57;;;;;;;7.53;6.80;;;26.30;98.40;;;;;;5083208;28;20100;-77
2022/08/14 08:35:28;;;;;;;7.10;6.43;;;26.40;98.00;;;;;;5087126;28;20024;-76
2022/08/14 08:37:59;;;;;;;7.53;6.82;;;26.60;97.80;;;;;;5084791;28;20032;-76
2022/08/14 08:40:29;;;;;;;7.60;6.90;;;26.80;97.40;;;;;;5087380;28;20056;-76
2022/08/14 08:42:54;;;;;;;7.82;7.13;;;27.00;96.70;;;;;;5078168;28;20024;-76
2022/08/14 08:45:22;;;;;;;7.25;6.55;;;27.10;96.40;;;;;;5075825;28;20222;-76
2022/08/14 08:47:49;;;;;;;7.70;7.00;;;27.20;95.30;;;;;;5087327;28;20025;-76
2022/08/14 08:50:19;;;;;;;7.90;7.10;;;27.20;95.10;;;;;;5083509;28;20024;-76
2022/08/14 08:52:52;;;;;;;7.55;6.85;;;27.10;95.10;;;;;;5072434;28;20035;-76
2022/08/14 08:55:37;;;;;;;7.53;6.55;;;27.00;95.10;;;;;;5067583;28;20139;-76
2022/08/14 08:58:05;;;;;;;9.00;7.22;;;27.10;95.20;;;;;;5067306;28;20039;-76
2022/08/14 09:00:33;;;;;;;7.95;7.15;;;27.10;94.80;;;;;;5069398;28;20028;-76
2022/08/14 09:03:05;;;;;;;7.55;6.90;;;27.00;94.70;;;;;;5077170;28;20024;-76
2022/08/14 09:05:32;;;;;;;7.32;6.72;;;27.00;94.80;;;;;;5085197;28;20035;-76
2022/08/14 09:08:18;;;;;;;7.82;7.00;;;26.90;94.80;;;;;;5086460;28;20157;-76
2022/08/14 09:10:44;;;;;;;7.50;6.72;;;26.90;94.90;;;;;;5079432;28;20035;-76
2022/08/14 09:13:11;;;;;;;7.82;7.20;;;26.90;94.30;;;;;;5081585;28;20443;-76
2022/08/14 09:15:39;;;;;;;7.88;6.85;;;26.90;94.30;;;;;;5076734;28;20047;-78
2022/08/14 09:18:06;;;;;;;7.68;6.72;;;27.00;94.10;;;;;;5081221;28;20041;-78
2022/08/14 09:20:32;;;;;;;7.45;6.80;;;27.00;94.20;;;;;;5079672;28;20418;-81
2022/08/14 09:22:58;;;;;;;7.53;6.80;;;27.10;94.00;;;;;;5080566;28;20031;-85
2022/08/14 09:25:24;;;;;;;7.00;6.40;;;27.30;94.20;;;;;;5076954;28;20028;-80
2022/08/14 09:27:49;;;;;;;7.65;6.75;;;27.40;93.20;;;;;;5080570;28;20379;-80
2022/08/14 09:30:15;;;;;;;6.38;5.85;;;27.40;92.90;;;;;;5085383;28;20035;-80
2022/08/14 09:33:03;;;;;;;6.90;6.37;;;27.50;92.50;;;;;;4726563;28;10000519;-78
2022/08/14 09:35:41;;;;;;;6.40;5.80;;;27.60;92.10;;;;;;5076450;28;20111;-78
2022/08/14 09:38:25;;;;;;;6.35;5.85;;;27.70;92.20;;;;;;5083494;28;20070;-78
2022/08/14 09:41:04;;;;;;;6.03;5.45;;;27.90;91.40;;;;;;5077143;28;20039;-77
2022/08/14 09:43:32;;;;;;;7.30;5.88;;;28.10;90.40;;;;;;5078218;28;20070;-78
2022/08/14 09:45:58;;;;;;;7.78;5.65;;;28.30;90.20;;;;;;5079910;28;20024;-78
2022/08/14 09:48:26;;;;;;;6.03;5.53;;;28.20;89.20;;;;;;5077752;28;20419;-78
2022/08/14 09:50:53;;;;;;;5.90;5.40;;;28.00;89.30;;;;;;5077727;28;20448;-78
2022/08/14 09:53:59;;;;;;;5.72;5.22;;;28.10;89.50;;;;;;5077745;28;20043;-78
2022/08/14 09:56:25;;;;;;;5.90;5.35;;;28.20;88.40;;;;;;5059960;28;20045;-78
2022/08/14 09:58:51;;;;;;;5.13;4.72;;;28.30;89.60;;;;;;5072769;28;20083;-78
2022/08/14 10:01:19;;;;;;;6.00;5.45;;;28.10;86.80;;;;;;5079881;28;20391;-78
2022/08/14 10:03:47;;;;;;;5.82;5.43;;;27.90;86.90;;;;;;5075409;28;20085;-77
2022/08/14 10:06:19;;;;;;;5.57;5.18;;;27.90;87.20;;;;;;5074523;28;20034;-76
2022/08/14 10:08:49;;;;;;;5.97;5.28;;;28.00;87.70;;;;;;5072256;28;20090;-76
2022/08/14 10:11:18;;;;;;;5.47;5.00;;;27.90;87.20;;;;;;5076089;28;20024;-76
2022/08/14 10:13:45;;;;;;;6.30;5.05;;;27.80;87.40;;;;;;5073140;28;20078;-77
2022/08/14 10:16:12;;;;;;;6.10;5.18;;;27.70;89.00;;;;;;5080102;28;20117;-76
2022/08/14 10:18:38;;;;;;;6.00;5.30;;;27.70;88.90;;;;;;5079828;28;20161;-86
2022/08/14 10:21:07;;;;;;;6.18;5.57;;;27.90;88.00;;;;;;5076633;28;20532;-74
2022/08/14 10:23:43;;;;;;;5.82;5.32;;;28.00;86.80;;;;;;5074810;28;20036;-77
2022/08/14 10:26:09;;;;;;;5.80;5.30;;;28.30;86.80;;;;;;5079123;28;20103;-78
2022/08/14 10:28:46;;;;;;;6.78;5.15;;;28.30;84.30;;;;;;5076052;28;20092;-76
2022/08/14 10:31:30;;;;;;;6.05;5.47;;;28.10;85.00;;;;;;5078489;28;20035;-76
2022/08/14 10:34:09;;;;;;;5.68;5.18;;;28.00;85.20;;;;;;5078587;28;20447;-75
2022/08/14 10:36:37;;;;;;;7.32;5.53;;;28.10;85.90;;;;;;5082471;28;20032;-75
2022/08/14 10:39:21;;;;;;;7.90;5.30;;;28.20;84.20;;;;;;5080125;28;20050;-77
2022/08/14 10:41:47;;;;;;;6.28;5.68;;;28.10;84.50;;;;;;5069962;28;20036;-78
2022/08/14 10:44:15;;;;;;;5.53;5.10;;;28.30;85.10;;;;;;5081690;28;20123;-74
2022/08/14 10:46:42;;;;;;;5.45;4.95;;;28.60;83.50;;;;;;5080645;28;20049;-75
2022/08/14 10:49:25;;;;;;;5.50;5.00;;;29.00;81.60;;;;;;5080777;28;20028;-75
2022/08/14 10:52:07;;;;;;;6.72;4.57;;;29.40;78.40;;;;;;5075921;28;20020;-76
2022/08/14 10:54:42;;;;;;;5.10;4.57;;;29.60;78.40;;;;;;5082299;28;20035;-76
2022/08/14 10:57:11;;;;;;;5.20;4.70;;;29.80;75.60;;;;;;5079006;28;20028;-78
2022/08/14 10:59:44;;;;;;;4.90;4.50;;;29.60;75.50;;;;;;5080614;28;20020;-74
2022/08/14 11:02:28;;;;;;;4.75;4.35;;;29.70;75.30;;;;;;5079162;28;20055;-74
2022/08/14 11:05:14;;;;;;;5.20;4.60;;;29.80;75.40;;;;;;5081863;28;20052;-76
2022/08/14 11:07:42;;;;;;;5.22;4.72;;;30.00;74.50;;;;;;5078967;28;20024;-74
2022/08/14 11:10:13;;;;;;;4.97;4.57;;;30.00;73.30;;;;;;5074828;28;20028;-76
2022/08/14 11:12:49;;;;;;;4.80;4.50;;;29.90;73.20;;;;;;5078663;28;20102;-73
2022/08/14 11:15:17;;;;;;;4.93;4.53;;;29.90;73.80;;;;;;5073399;28;20040;-74
2022/08/14 11:17:46;;;;;;;4.85;4.53;;;30.00;73.40;;;;;;5079182;28;20499;-74
2022/08/14 11:20:13;;;;;;;5.28;4.78;;;30.20;71.70;;;;;;5080474;28;20447;-76
2022/08/14 11:22:42;;;;;;;4.95;4.55;;;30.20;70.80;;;;;;5078364;28;20110;-74
2022/08/14 11:25:13;;;;;;;5.50;5.00;;;30.30;71.40;;;;;;5079896;28;20028;-76
2022/08/14 11:27:43;;;;;;;5.63;4.40;;;30.60;71.90;;;;;;5078247;28;20028;-77
2022/08/14 11:30:15;;;;;;;4.95;4.45;;;30.80;69.10;;;;;;5080123;28;20027;-76
2022/08/14 11:32:49;;;;;;;5.10;4.70;;;31.00;68.90;;;;;;5078293;28;20055;-77
2022/08/14 11:35:20;;;;;;;6.45;4.20;;;31.20;68.80;;;;;;5078697;28;20437;-76
2022/08/14 11:37:55;;;;;;;5.30;4.55;;;31.40;67.70;;;;;;5081436;28;20036;-75
2022/08/14 11:40:23;;;;;;;5.03;4.47;;;31.30;66.10;;;;;;5078403;28;20126;-74
2022/08/14 11:42:54;;;;;;;5.20;4.70;;;31.00;66.80;;;;;;5077955;28;20028;-77
2022/08/14 11:45:24;;;;;;;5.30;4.80;;;30.70;67.00;;;;;;5083409;28;20394;-77
2022/08/14 11:47:52;;;;;;;4.63;4.22;;;30.70;67.30;;;;;;5081417;28;20532;-76
2022/08/14 11:50:23;;;;;;;4.93;4.53;;;30.80;66.30;;;;;;5078888;28;20086;-76
2022/08/14 11:52:53;;;;;;;4.60;4.20;;;30.80;66.50;;;;;;5067912;28;20040;-77
2022/08/14 11:55:20;;;;;;;6.15;4.55;;;30.80;66.80;;;;;;5076320;28;20433;-77
2022/08/14 11:57:46;;;;;;;10.25;4.80;;;30.80;66.70;;;;;;5081400;28;20306;-74
2022/08/14 12:00:15;;;;;;;5.18;4.68;;;30.80;65.90;;;;;;5079446;28;20403;-74
2022/08/14 12:03:10;;;;;;;5.75;5.00;;;30.90;66.70;;;;;;5078192;28;20040;-74
2022/08/14 12:05:40;;;;;;;6.22;4.90;;;31.00;65.90;;;;;;5061095;28;20036;-74
2022/08/14 12:08:07;;;;;;;5.30;4.90;;;31.00;65.30;;;;;;5081358;28;20600;-74
2022/08/14 12:10:38;;;;;;;5.32;4.40;;;31.10;66.30;;;;;;5078831;28;20105;-74
2022/08/14 12:13:14;;;;;;;5.95;4.30;;;31.20;62.80;;;;;;5077579;28;20417;-74
2022/08/14 12:15:41;;;;;;;5.18;4.78;;;31.30;63.40;;;;;;5078580;28;20531;-74
2022/08/14 12:18:07;;;;;;;5.10;4.70;;;31.30;62.10;;;;;;5080403;28;20032;-74
2022/08/14 12:20:36;;;;;;;6.35;4.93;;;31.40;62.40;;;;;;5078671;28;20028;-74
2022/08/14 12:23:05;;;;;;;5.20;4.75;;;31.40;63.40;;;;;;5075284;28;20043;-75
2022/08/14 12:25:31;;;;;;;5.60;4.93;;;31.20;63.40;;;;;;5079584;28;20663;-77
2022/08/14 12:28:00;;;;;;;6.32;5.00;;;31.00;63.40;;;;;;5075813;28;20551;-75
2022/08/14 12:30:42;;;;;;;6.50;4.90;;;31.00;64.60;;;;;;5078969;28;20484;-75
2022/08/14 12:33:33;;;;;;;6.97;4.53;;;31.20;63.90;;;;;;5075489;28;20040;-76
2022/08/14 12:36:05;;;;;;;5.72;5.22;;;31.40;63.00;;;;;;5078379;28;20055;-78
2022/08/14 12:38:32;;;;;;;5.60;5.10;;;31.20;63.40;;;;;;5075931;28;20500;-78
2022/08/14 12:41:00;;;;;;;5.70;4.80;;;31.00;64.00;;;;;;5073970;28;20184;-77
2022/08/14 12:43:26;;;;;;;5.60;5.10;;;30.80;64.40;;;;;;5075178;28;20041;-77
2022/08/14 12:45:53;;;;;;;5.63;5.13;;;30.80;64.80;;;;;;5081186;28;20373;-78
2022/08/14 12:48:21;;;;;;;5.20;4.80;;;31.10;64.00;;;;;;5075860;28;20061;-78
2022/08/14 12:50:50;;;;;;;6.85;6.25;;;31.20;64.00;;;;;;5080156;28;20032;-75
2022/08/14 12:53:15;;;;;;;5.32;4.80;;;31.50;63.20;;;;;;5072279;28;20064;-75
2022/08/14 12:55:43;;;;;;;7.82;5.00;;;31.60;60.90;;;;;;5081116;28;20063;-75
2022/08/14 12:58:10;;;;;;;5.18;4.78;;;31.60;60.70;;;;;;5070440;28;20537;-75
2022/08/14 13:00:38;;;;;;;5.15;4.65;;;31.90;60.50;;;;;;5074386;28;20031;-75
2022/08/14 13:03:04;;;;;;;5.35;4.80;;;31.90;60.00;;;;;;5073107;28;20507;-75
2022/08/14 13:05:33;;;;;;;5.25;4.57;;;31.90;60.90;;;;;;5073638;28;20487;-75
2022/08/14 13:08:02;;;;;;;5.28;4.45;;;32.00;60.00;;;;;;5074687;28;20036;-75
2022/08/14 13:10:32;;;;;;;5.07;4.43;;;32.00;58.60;;;;;;5076578;28;20556;-75